createdAt,value
2022-10-17T00:00:59.166Z,10.44
2022-10-17T00:04:02.055Z,10.39
2022-10-17T00:07:05.006Z,10.32
2022-10-17T00:10:08.771Z,10.29
2022-10-17T00:13:12.628Z,10.21
2022-10-17T00:16:23.519Z,10.30
2022-10-17T00:19:26.286Z,10.21
2022-10-17T00:22:29.082Z,10.15
2022-10-17T00:25:32.160Z,10.17
2022-10-17T00:28:35.113Z,10.22
2022-10-17T00:31:37.960Z,10.11
2022-10-17T00:34:40.912Z,10.11
2022-10-17T00:37:43.647Z,10.09
2022-10-17T00:40:46.986Z,10.02
2022-10-17T00:43:59.678Z,10.03
2022-10-17T00:47:06.556Z,10.19
2022-10-17T00:50:13.295Z,10.30
2022-10-17T00:53:17.124Z,10.30
2022-10-17T00:56:21.370Z,10.34
2022-10-17T00:59:25.174Z,10.24
2022-10-17T01:02:28.829Z,10.17
2022-10-17T01:05:32.323Z,10.04
2022-10-17T01:08:35.752Z,10.08
2022-10-17T01:11:38.467Z,10.11
2022-10-17T01:14:55.158Z,10.08
2022-10-17T01:18:15.970Z,10.00
2022-10-17T01:21:32.016Z,10.05
2022-10-17T01:25:05.703Z,10.02
2022-10-17T01:28:22.982Z,10.08
2022-10-17T01:31:38.419Z,10.12
2022-10-17T01:35:17.389Z,10.16
2022-10-17T01:38:34.575Z,10.19
2022-10-17T01:41:47.103Z,10.15
2022-10-17T01:44:56.182Z,10.17
2022-10-17T01:48:03.717Z,10.13
2022-10-17T01:51:12.539Z,10.18
2022-10-17T01:54:22.397Z,10.08
2022-10-17T01:57:33.470Z,10.15
2022-10-17T02:00:38.047Z,10.17
2022-10-17T02:03:43.850Z,10.11
2022-10-17T02:06:46.703Z,10.07
2022-10-17T02:09:49.760Z,10.01
2022-10-17T02:13:02.282Z,10.05
2022-10-17T02:16:11.809Z,9.97
2022-10-17T02:19:39.524Z,9.93
2022-10-17T02:22:56.517Z,9.93
2022-10-17T02:26:21.649Z,9.85
2022-10-17T02:29:40.795Z,9.84
2022-10-17T02:33:13.108Z,9.83
2022-10-17T02:36:22.140Z,9.81
2022-10-17T02:39:27.044Z,9.81
2022-10-17T02:42:32.851Z,9.79
2022-10-17T02:45:38.050Z,9.75
2022-10-17T02:48:47.338Z,9.72
2022-10-17T02:52:05.135Z,9.65
2022-10-17T02:55:08.848Z,9.61
2022-10-17T02:58:43.291Z,9.55
2022-10-17T03:01:46.914Z,9.46
2022-10-17T03:04:49.883Z,9.45
2022-10-17T03:07:53.714Z,9.53
2022-10-17T03:10:56.691Z,9.53
2022-10-17T03:14:00.258Z,9.53
2022-10-17T03:17:03.682Z,9.47
2022-10-17T03:20:08.013Z,9.41
2022-10-17T03:23:10.922Z,9.42
2022-10-17T03:26:13.698Z,9.36
2022-10-17T03:29:16.493Z,9.30
2022-10-17T03:32:19.582Z,9.25
2022-10-17T03:35:23.225Z,9.22
2022-10-17T03:38:26.741Z,9.18
2022-10-17T03:41:29.495Z,9.22
2022-10-17T03:44:32.488Z,9.16
2022-10-17T03:47:35.725Z,9.29
2022-10-17T03:50:39.581Z,9.22
2022-10-17T03:53:42.811Z,9.32
2022-10-17T03:56:45.732Z,9.21
2022-10-17T03:59:53.081Z,9.02
2022-10-17T04:02:58.490Z,9.06
2022-10-17T04:06:04.962Z,8.98
2022-10-17T04:09:11.304Z,8.96
2022-10-17T04:12:24.255Z,8.87
2022-10-17T04:15:27.103Z,8.81
2022-10-17T04:18:30.252Z,8.84
2022-10-17T04:21:33.587Z,8.84
2022-10-17T04:24:41.331Z,8.90
2022-10-17T04:28:01.161Z,9.00
2022-10-17T04:31:06.687Z,9.10
2022-10-17T04:34:15.741Z,8.98
2022-10-17T04:37:18.742Z,9.04
2022-10-17T04:40:22.953Z,9.02
2022-10-17T04:43:27.792Z,9.01
2022-10-17T04:46:31.039Z,8.94
2022-10-17T04:49:33.788Z,8.84
2022-10-17T04:52:44.081Z,8.80
2022-10-17T04:55:48.133Z,8.78
2022-10-17T04:58:52.492Z,8.73
2022-10-17T05:01:55.625Z,8.69
2022-10-17T05:04:58.849Z,8.71
2022-10-17T05:08:01.705Z,8.71
2022-10-17T05:11:20.118Z,8.75
2022-10-17T05:14:23.403Z,8.81
2022-10-17T05:17:27.977Z,8.82
2022-10-17T05:20:31.299Z,8.80
2022-10-17T05:23:34.484Z,8.74
2022-10-17T05:26:37.404Z,8.71
2022-10-17T05:29:40.188Z,8.76
2022-10-17T05:32:55.093Z,8.73
2022-10-17T05:35:58.496Z,8.81
2022-10-17T05:39:01.619Z,8.85
2022-10-17T05:42:05.502Z,8.96
2022-10-17T05:45:09.870Z,9.02
2022-10-17T05:48:12.852Z,9.12
2022-10-17T05:51:15.783Z,9.19
2022-10-17T05:54:22.428Z,9.32
2022-10-17T06:12:46.238Z,9.51
2022-10-17T06:15:52.818Z,9.62
2022-10-17T06:18:56.066Z,9.73
2022-10-17T06:22:00.042Z,9.84
2022-10-17T06:25:04.273Z,9.99
2022-10-17T06:28:07.619Z,10.07
2022-10-17T06:31:14.076Z,10.12
2022-10-17T06:34:20.973Z,10.21
2022-10-17T06:37:23.981Z,10.45
2022-10-17T06:40:26.839Z,12.97
2022-10-17T06:43:30.660Z,14.68
2022-10-17T06:46:53.366Z,16.18
2022-10-17T06:49:57.511Z,17.45
2022-10-17T06:53:07.813Z,18.37
2022-10-17T06:56:44.856Z,19.75
2022-10-17T07:00:23.534Z,20.04
2022-10-17T07:03:30.335Z,20.31
2022-10-17T07:06:34.098Z,21.09
2022-10-17T07:09:42.972Z,21.21
2022-10-17T07:12:46.531Z,23.51
2022-10-17T07:15:49.496Z,23.82
2022-10-17T07:18:54.520Z,23.47
2022-10-17T07:21:57.548Z,24.91
2022-10-17T07:25:13.096Z,24.30
2022-10-17T07:28:31.225Z,24.31
2022-10-17T07:31:38.952Z,24.13
2022-10-17T07:34:42.111Z,25.14
2022-10-17T07:37:46.363Z,23.97
2022-10-17T07:40:56.138Z,22.69
2022-10-17T07:43:59.045Z,23.64
2022-10-17T07:47:07.944Z,24.28
2022-10-17T07:50:12.562Z,25.06
2022-10-17T07:53:15.760Z,23.34
2022-10-17T07:56:18.591Z,23.88
2022-10-17T07:59:21.640Z,24.27
2022-10-17T08:02:28.681Z,25.95
2022-10-17T08:05:32.598Z,26.34
2022-10-17T08:08:35.648Z,26.39
2022-10-17T08:11:38.740Z,28.33
2022-10-17T08:14:42.497Z,28.72
2022-10-17T08:17:45.265Z,28.49
2022-10-17T08:20:48.815Z,28.66
2022-10-17T08:23:51.641Z,28.38
2022-10-17T08:26:54.523Z,29.93
2022-10-17T08:30:04.898Z,27.76
2022-10-17T08:33:08.423Z,29.11
2022-10-17T08:36:14.237Z,29.51
2022-10-17T08:39:17.026Z,29.41
2022-10-17T08:42:31.935Z,30.74
2022-10-17T08:46:00.450Z,29.15
2022-10-17T08:49:10.039Z,30.66
2022-10-17T08:53:03.259Z,29.97
2022-10-17T09:01:44.504Z,30.61
2022-10-17T09:05:14.388Z,31.63
2022-10-17T09:08:22.996Z,32.72
2022-10-17T09:11:32.516Z,32.22
2022-10-17T09:14:51.804Z,33.74
2022-10-17T09:18:16.672Z,32.21
2022-10-17T09:21:37.775Z,32.70
2022-10-17T09:24:49.998Z,32.45
2022-10-17T09:28:24.887Z,33.98
2022-10-17T09:31:36.033Z,32.93
2022-10-17T09:34:40.196Z,31.79
2022-10-17T09:37:46.688Z,32.59
2022-10-17T09:41:02.194Z,32.98
2022-10-17T09:44:25.877Z,33.30
2022-10-17T09:47:42.435Z,33.49
2022-10-17T09:51:21.768Z,34.24
2022-10-17T09:54:41.707Z,33.81
2022-10-17T09:57:57.923Z,34.73
2022-10-17T10:01:21.030Z,34.20
2022-10-17T10:04:30.547Z,35.58
2022-10-17T10:07:40.065Z,34.11
2022-10-17T10:10:44.478Z,35.36
2022-10-17T10:13:49.350Z,34.97
2022-10-17T10:16:53.873Z,35.75
2022-10-17T10:19:57.102Z,36.17
2022-10-17T10:23:10.032Z,35.01
2022-10-17T10:26:25.968Z,35.18
2022-10-17T10:29:36.855Z,34.74
2022-10-17T10:32:40.357Z,35.73
2022-10-17T10:35:43.273Z,35.95
2022-10-17T10:38:53.799Z,35.24
2022-10-17T10:41:57.251Z,36.47
2022-10-17T10:45:35.984Z,34.74
2022-10-17T10:48:54.087Z,35.71
2022-10-17T10:52:02.107Z,34.24
2022-10-17T10:55:39.464Z,35.58
2022-10-17T10:59:15.465Z,34.48
2022-10-17T11:02:39.635Z,35.20
2022-10-17T11:06:29.195Z,34.40
2022-10-17T11:09:56.728Z,34.92
2022-10-17T11:13:29.886Z,34.25
2022-10-17T11:16:46.010Z,35.54
2022-10-17T11:20:04.632Z,36.19
2022-10-17T11:23:21.790Z,35.58
2022-10-17T11:26:31.886Z,36.11
2022-10-17T11:29:41.269Z,36.00
2022-10-17T11:32:54.233Z,35.72
2022-10-17T11:36:04.769Z,35.50
2022-10-17T11:39:49.501Z,34.93
2022-10-17T11:43:00.564Z,34.93
2022-10-17T11:46:22.908Z,34.60
2022-10-17T11:49:32.084Z,34.76
2022-10-17T11:52:56.336Z,35.41
2022-10-17T11:56:01.834Z,35.99
2022-10-17T11:59:29.885Z,36.55
2022-10-17T12:02:35.749Z,34.44
2022-10-17T12:06:00.148Z,35.47
2022-10-17T12:09:18.327Z,36.30
2022-10-17T12:12:33.409Z,34.17
2022-10-17T12:15:36.509Z,34.32
2022-10-17T12:18:39.406Z,33.15
2022-10-17T12:22:20.338Z,33.87
2022-10-17T12:25:33.780Z,33.95
2022-10-17T12:28:44.793Z,33.29
2022-10-17T12:31:47.635Z,33.48
2022-10-17T12:34:55.130Z,33.39
2022-10-17T12:38:02.387Z,33.25
2022-10-17T12:41:06.091Z,31.83
2022-10-17T12:44:18.195Z,33.90
2022-10-17T12:47:40.163Z,32.39
2022-10-17T12:54:53.581Z,31.92
2022-10-17T12:58:14.513Z,32.76
2022-10-17T13:01:34.390Z,31.57
2022-10-17T13:04:37.615Z,30.60
2022-10-17T13:08:03.543Z,32.28
2022-10-17T13:11:55.016Z,31.57
2022-10-17T13:14:34.225Z,31.33
2022-10-17T13:17:40.618Z,30.71
2022-10-17T13:21:01.749Z,30.78
2022-10-17T13:24:25.529Z,32.36
2022-10-17T13:27:30.039Z,32.21
2022-10-17T13:30:37.612Z,30.75
2022-10-17T13:33:42.407Z,31.68
2022-10-17T13:36:53.694Z,31.45
2022-10-17T13:40:00.297Z,31.33
2022-10-17T13:43:18.845Z,31.54
2022-10-17T13:46:39.527Z,28.75
2022-10-17T13:49:44.614Z,27.90
2022-10-17T13:52:47.414Z,29.16
2022-10-17T13:56:09.771Z,29.99
2022-10-17T13:59:26.165Z,30.35
2022-10-17T14:02:31.469Z,29.96
2022-10-17T14:05:34.530Z,28.66
2022-10-17T14:08:46.174Z,28.99
2022-10-17T14:12:01.167Z,29.27
2022-10-17T14:15:11.893Z,29.13
2022-10-17T14:18:21.369Z,28.08
2022-10-17T14:21:43.805Z,27.70
2022-10-17T14:24:48.804Z,27.60
2022-10-17T14:28:08.126Z,27.39
2022-10-17T14:31:34.221Z,27.39
2022-10-17T14:34:40.653Z,26.81
2022-10-17T14:37:51.918Z,24.97
2022-10-17T14:41:41.926Z,23.37
2022-10-17T14:44:52.930Z,22.32
2022-10-17T14:48:00.772Z,22.12
2022-10-17T14:51:16.607Z,21.92
2022-10-17T14:54:26.731Z,21.65
2022-10-17T14:57:44.236Z,21.41
2022-10-17T15:00:47.639Z,21.04
2022-10-17T15:03:50.523Z,20.91
2022-10-17T15:06:56.469Z,20.79
2022-10-17T15:09:59.167Z,20.72
2022-10-17T15:13:27.139Z,20.65
2022-10-17T15:16:31.028Z,20.43
2022-10-17T15:19:33.927Z,20.26
2022-10-17T15:22:36.734Z,20.06
2022-10-17T15:25:40.218Z,19.96
2022-10-17T15:28:43.415Z,19.88
2022-10-17T15:31:46.573Z,19.72
2022-10-17T15:34:49.515Z,19.55
2022-10-17T15:37:52.458Z,19.33
2022-10-17T15:40:55.591Z,19.15
2022-10-17T15:43:58.838Z,18.98
2022-10-17T15:47:01.949Z,18.73
2022-10-17T15:50:07.047Z,18.61
2022-10-17T15:53:13.182Z,18.35
2022-10-17T15:56:20.194Z,18.16
2022-10-17T15:59:32.499Z,17.91
2022-10-17T16:02:35.306Z,17.70
2022-10-17T16:05:38.075Z,17.48
2022-10-17T16:08:40.890Z,17.27
2022-10-17T16:11:45.426Z,17.18
2022-10-17T16:14:48.122Z,16.97
2022-10-17T16:17:52.504Z,16.94
2022-10-17T16:20:55.916Z,16.76
2022-10-17T16:23:59.273Z,16.61
2022-10-17T16:27:03.229Z,16.44
2022-10-17T16:30:08.032Z,16.55
2022-10-17T16:33:15.388Z,16.53
2022-10-17T16:36:19.101Z,16.56
2022-10-17T16:39:22.074Z,16.47
2022-10-17T16:42:25.080Z,16.31
2022-10-17T16:45:28.148Z,16.03
2022-10-17T16:48:31.149Z,15.87
2022-10-17T16:51:35.997Z,15.85
2022-10-17T16:54:39.520Z,15.86
2022-10-17T17:00:48.577Z,16.23
2022-10-17T17:03:53.429Z,16.23
2022-10-17T17:07:02.523Z,16.25
2022-10-17T17:10:06.787Z,15.91
2022-10-17T17:13:10.064Z,15.94
2022-10-17T17:16:16.453Z,15.68
2022-10-17T17:19:20.501Z,15.62
2022-10-17T17:22:23.482Z,15.31
2022-10-17T17:25:26.651Z,15.13
2022-10-17T17:28:30.864Z,14.92
2022-10-17T17:31:35.500Z,14.88
2022-10-17T17:34:41.607Z,14.70
2022-10-17T17:37:44.501Z,14.59
2022-10-17T17:40:50.659Z,14.53
2022-10-17T17:43:56.207Z,14.48
2022-10-17T17:46:59.065Z,14.42
2022-10-17T17:50:03.365Z,14.50
2022-10-17T17:53:07.093Z,14.58
2022-10-17T17:56:16.512Z,14.56
2022-10-17T17:59:19.400Z,14.48
2022-10-17T18:02:22.233Z,14.42
2022-10-17T18:05:24.966Z,14.40
2022-10-17T18:08:27.728Z,14.41
2022-10-17T18:11:30.473Z,14.28
2022-10-17T18:14:33.218Z,14.21
2022-10-17T18:17:36.105Z,14.09
2022-10-17T18:20:42.853Z,14.06
2022-10-17T18:23:48.591Z,14.06
2022-10-17T18:26:54.057Z,13.93
2022-10-17T18:29:57.146Z,13.92
2022-10-17T18:32:59.901Z,13.84
2022-10-17T18:36:07.164Z,13.77
2022-10-17T18:39:10.452Z,13.77
2022-10-17T18:42:13.430Z,13.81
2022-10-17T18:45:17.511Z,13.67
2022-10-17T18:48:20.320Z,13.59
2022-10-17T18:51:25.327Z,13.52
2022-10-17T18:54:29.407Z,13.46
2022-10-17T18:57:32.549Z,13.44
2022-10-17T19:00:36.970Z,13.35
2022-10-17T19:03:39.702Z,13.26
2022-10-17T19:06:44.643Z,13.28
2022-10-17T19:09:48.756Z,13.19
2022-10-17T19:12:51.525Z,13.28
2022-10-17T19:15:54.312Z,13.29
2022-10-17T19:19:06.108Z,13.28
2022-10-17T19:22:09.658Z,13.29
2022-10-17T19:25:12.718Z,13.25
2022-10-17T19:28:15.547Z,13.14
2022-10-17T19:31:24.085Z,13.07
2022-10-17T19:34:29.610Z,12.81
2022-10-17T19:37:32.939Z,12.54
2022-10-17T19:40:41.086Z,12.54
2022-10-17T19:43:44.188Z,12.43
2022-10-17T19:46:49.246Z,12.39
2022-10-17T19:49:52.269Z,12.20
2022-10-17T19:52:55.038Z,11.98
2022-10-17T19:55:58.390Z,11.90
2022-10-17T19:59:01.492Z,11.78
2022-10-17T20:02:04.658Z,11.70
2022-10-17T20:05:21.612Z,11.72
2022-10-17T20:11:34.644Z,11.55
2022-10-17T20:14:40.817Z,11.57
2022-10-17T20:17:43.936Z,11.57
2022-10-17T20:20:46.803Z,11.51
2022-10-17T20:23:51.041Z,11.47
2022-10-17T20:26:53.823Z,11.42
2022-10-17T20:30:01.829Z,11.41
2022-10-17T20:33:04.964Z,11.28
2022-10-17T20:36:09.899Z,11.23
2022-10-17T20:39:14.401Z,11.26
2022-10-17T20:42:17.223Z,11.10
2022-10-17T20:45:32.024Z,11.07
2022-10-17T20:48:42.887Z,11.05
2022-10-17T20:51:46.369Z,10.93
2022-10-17T20:54:49.881Z,10.88
2022-10-17T20:57:56.000Z,10.75
2022-10-17T21:00:58.782Z,10.79
2022-10-17T21:04:21.283Z,10.84
2022-10-17T21:07:25.418Z,10.70
2022-10-17T21:10:35.452Z,10.74
2022-10-17T21:13:38.978Z,10.70
2022-10-17T21:16:41.938Z,10.70
2022-10-17T21:19:44.582Z,10.69
2022-10-17T21:22:47.335Z,10.74
2022-10-17T21:25:50.063Z,10.68
2022-10-17T21:28:53.103Z,10.59
2022-10-17T21:31:56.367Z,10.49
2022-10-17T21:34:59.118Z,10.47
2022-10-17T21:38:01.845Z,10.38
2022-10-17T21:41:06.715Z,10.36
2022-10-17T21:44:18.245Z,10.35
2022-10-17T21:47:23.262Z,10.41
2022-10-17T21:50:29.714Z,10.40
2022-10-17T21:53:32.926Z,10.42
2022-10-17T21:56:36.503Z,10.44
2022-10-17T21:59:40.044Z,10.35
2022-10-17T22:02:42.819Z,10.27
2022-10-17T22:05:45.638Z,10.24
2022-10-17T22:08:48.670Z,10.16
2022-10-17T22:11:54.794Z,10.29
2022-10-17T22:14:57.484Z,10.25
2022-10-17T22:18:00.256Z,10.23
2022-10-17T22:21:03.760Z,10.09
2022-10-17T22:24:08.686Z,10.08
2022-10-17T22:27:11.506Z,10.22
2022-10-17T22:30:14.294Z,10.57
2022-10-17T22:33:17.568Z,10.64
2022-10-17T22:36:20.678Z,10.44
2022-10-17T22:39:23.380Z,10.39
2022-10-17T22:42:26.188Z,10.25
2022-10-17T22:45:28.980Z,10.06
2022-10-17T22:48:31.988Z,10.05
2022-10-17T22:51:34.848Z,9.89
2022-10-17T22:54:37.560Z,9.93
2022-10-17T22:57:41.021Z,9.93
2022-10-17T23:00:44.026Z,9.99
2022-10-17T23:03:47.064Z,9.92
2022-10-17T23:06:49.850Z,9.85
2022-10-17T23:09:53.066Z,9.72
2022-10-17T23:12:55.911Z,9.71
2022-10-17T23:15:58.924Z,9.63
2022-10-17T23:19:01.877Z,9.61
2022-10-17T23:22:06.206Z,9.48
2022-10-17T23:25:09.235Z,9.34
2022-10-17T23:28:12.404Z,9.29
2022-10-17T23:31:20.867Z,9.29
2022-10-17T23:34:23.602Z,9.19
2022-10-17T23:37:26.320Z,9.13
2022-10-17T23:40:29.439Z,9.14
2022-10-17T23:43:34.534Z,9.12
2022-10-17T23:46:37.506Z,9.16
2022-10-17T23:49:40.290Z,9.14
2022-10-17T23:52:43.211Z,9.03
2022-10-17T23:55:45.998Z,9.04
2022-10-17T23:58:49.016Z,9.01
